createdAt,value
2022-10-18T00:00:38.313Z,13.07
2022-10-18T00:03:11.392Z,11.27
2022-10-18T00:05:44.262Z,17.23
2022-10-18T00:08:17.528Z,11.03
2022-10-18T00:10:50.462Z,9.90
2022-10-18T00:13:25.151Z,10.47
2022-10-18T00:16:00.226Z,12.27
2022-10-18T00:18:33.207Z,11.17
2022-10-18T00:21:09.845Z,12.70
2022-10-18T00:23:42.503Z,14.07
2022-10-18T00:26:16.353Z,11.77
2022-10-18T00:28:53.544Z,15.03
2022-10-18T00:31:27.357Z,15.27
2022-10-18T00:34:01.175Z,9.40
2022-10-18T00:36:35.212Z,11.23
2022-10-18T00:39:08.964Z,10.53
2022-10-18T00:41:41.619Z,13.37
2022-10-18T00:44:34.422Z,10.93
2022-10-18T00:47:09.790Z,10.63
2022-10-18T00:49:44.766Z,13.57
2022-10-18T00:52:19.044Z,11.43
2022-10-18T00:54:52.749Z,12.57
2022-10-18T00:57:25.614Z,13.47
2022-10-18T01:00:00.330Z,12.83
2022-10-18T01:02:34.903Z,12.03
2022-10-18T01:05:08.256Z,13.33
2022-10-18T01:08:01.849Z,13.50
2022-10-18T01:10:40.531Z,13.40
2022-10-18T01:13:24.829Z,12.50
2022-10-18T01:16:00.576Z,11.67
2022-10-18T01:18:40.600Z,11.70
2022-10-18T01:21:19.832Z,11.07
2022-10-18T01:24:01.159Z,12.23
2022-10-18T01:26:40.707Z,12.63
2022-10-18T01:29:18.650Z,12.53
2022-10-18T01:31:57.616Z,12.90
2022-10-18T01:34:34.785Z,13.37
2022-10-18T01:37:09.103Z,13.37
2022-10-18T01:39:44.223Z,16.70
2022-10-18T01:42:19.282Z,13.63
2022-10-18T01:44:55.370Z,12.67
2022-10-18T01:47:30.813Z,13.17
2022-10-18T01:50:06.674Z,13.70
2022-10-18T01:52:51.132Z,13.50
2022-10-18T01:55:26.207Z,12.80
2022-10-18T01:58:04.480Z,14.00
2022-10-18T02:00:39.976Z,13.57
2022-10-18T02:03:17.649Z,15.40
2022-10-18T02:05:52.924Z,12.93
2022-10-18T02:08:28.683Z,14.17
2022-10-18T02:11:03.245Z,13.70
2022-10-18T02:13:38.347Z,14.13
2022-10-18T02:16:12.694Z,14.10
2022-10-18T02:18:50.457Z,13.70
2022-10-18T02:21:23.591Z,13.73
2022-10-18T02:23:57.560Z,14.17
2022-10-18T02:26:30.775Z,14.50
2022-10-18T02:29:03.657Z,16.83
2022-10-18T02:31:38.351Z,14.30
2022-10-18T02:34:17.623Z,15.10
2022-10-18T02:36:53.473Z,16.33
2022-10-18T02:39:28.193Z,13.87
2022-10-18T02:42:01.099Z,13.33
2022-10-18T02:44:33.896Z,15.67
2022-10-18T02:47:07.693Z,15.73
2022-10-18T02:49:42.064Z,14.07
2022-10-18T02:52:14.973Z,15.20
2022-10-18T02:54:47.757Z,16.23
2022-10-18T02:57:20.629Z,15.90
2022-10-18T02:59:53.381Z,15.13
2022-10-18T03:02:26.305Z,14.77
2022-10-18T03:05:02.427Z,14.13
2022-10-18T03:07:35.152Z,14.43
2022-10-18T03:10:08.623Z,13.20
2022-10-18T03:12:41.558Z,14.73
2022-10-18T03:15:14.380Z,13.63
2022-10-18T03:17:47.212Z,14.30
2022-10-18T03:20:23.579Z,16.83
2022-10-18T03:22:58.994Z,13.33
2022-10-18T03:25:31.776Z,14.27
2022-10-18T03:28:04.787Z,13.87
2022-10-18T03:30:38.803Z,13.33
2022-10-18T03:33:13.745Z,12.93
2022-10-18T03:35:47.814Z,14.53
2022-10-18T03:38:20.424Z,13.17
2022-10-18T03:40:53.134Z,14.77
2022-10-18T03:43:26.006Z,11.77
2022-10-18T03:45:58.862Z,13.40
2022-10-18T03:48:31.555Z,16.40
2022-10-18T03:51:05.838Z,14.07
2022-10-18T03:53:38.465Z,12.73
2022-10-18T03:56:11.017Z,12.83
2022-10-18T03:58:45.497Z,14.50
2022-10-18T04:01:18.129Z,13.30
2022-10-18T04:03:50.859Z,14.73
2022-10-18T04:06:25.006Z,13.47
2022-10-18T04:08:57.683Z,15.00
2022-10-18T04:11:30.366Z,12.87
2022-10-18T04:14:03.020Z,12.53
2022-10-18T04:16:38.185Z,14.20
2022-10-18T04:19:12.501Z,10.90
2022-10-18T04:21:46.639Z,12.90
2022-10-18T04:24:19.163Z,11.43
2022-10-18T04:26:51.784Z,12.80
2022-10-18T04:29:27.080Z,10.97
2022-10-18T04:31:59.732Z,12.40
2022-10-18T04:34:32.508Z,11.67
2022-10-18T04:37:06.677Z,11.77
2022-10-18T04:39:42.781Z,11.50
2022-10-18T04:42:15.663Z,12.43
2022-10-18T04:44:48.296Z,12.53
2022-10-18T04:47:21.130Z,11.80
2022-10-18T04:49:53.852Z,11.70
2022-10-18T04:52:28.038Z,13.73
2022-10-18T04:55:00.776Z,11.73
2022-10-18T04:57:33.660Z,11.23
2022-10-18T05:00:07.566Z,11.83
2022-10-18T05:02:40.111Z,11.93
2022-10-18T05:05:14.120Z,13.73
2022-10-18T05:07:51.183Z,12.77
2022-10-18T05:10:24.057Z,13.23
2022-10-18T05:12:57.003Z,13.13
2022-10-18T05:15:29.750Z,13.13
2022-10-18T05:18:02.431Z,13.07
2022-10-18T05:20:35.044Z,13.37
2022-10-18T05:23:10.769Z,13.23
2022-10-18T05:25:45.917Z,14.70
2022-10-18T05:28:38.853Z,13.03
2022-10-18T05:31:12.234Z,13.47
2022-10-18T05:33:44.910Z,14.20
2022-10-18T05:36:17.585Z,17.43
2022-10-18T05:38:54.066Z,16.17
2022-10-18T05:41:26.862Z,14.47
2022-10-18T05:43:59.801Z,14.90
2022-10-18T05:46:32.493Z,16.63
2022-10-18T05:49:05.238Z,14.70
2022-10-18T05:51:38.065Z,14.47
2022-10-18T05:54:13.059Z,14.93
2022-10-18T05:56:45.757Z,16.03
2022-10-18T05:59:18.483Z,15.30
2022-10-18T06:01:53.992Z,16.80
2022-10-18T06:04:29.787Z,16.13
2022-10-18T06:07:02.592Z,15.30
2022-10-18T06:09:36.754Z,17.63
2022-10-18T06:12:09.920Z,15.03
2022-10-18T06:14:44.336Z,15.93
2022-10-18T06:17:16.943Z,18.40
2022-10-18T06:19:49.837Z,15.33
2022-10-18T06:22:24.489Z,16.83
2022-10-18T06:24:58.449Z,17.47
2022-10-18T06:27:32.580Z,15.97
2022-10-18T06:30:07.872Z,15.97
2022-10-18T06:32:41.575Z,15.80
2022-10-18T06:35:14.460Z,18.23
2022-10-18T06:37:47.040Z,16.60
2022-10-18T06:40:21.320Z,19.40
2022-10-18T06:43:00.249Z,17.90
2022-10-18T06:45:38.662Z,15.40
2022-10-18T06:48:12.638Z,16.57
2022-10-18T06:50:51.631Z,24.37
2022-10-18T06:53:24.805Z,21.83
2022-10-18T06:56:01.833Z,23.13
2022-10-18T06:58:35.445Z,21.97
2022-10-18T07:01:08.814Z,19.07
2022-10-18T07:03:41.613Z,22.60
2022-10-18T07:06:17.631Z,15.77
2022-10-18T07:08:52.725Z,17.30
2022-10-18T07:11:27.279Z,16.50
2022-10-18T07:14:03.280Z,18.73
2022-10-18T07:16:36.145Z,15.70
2022-10-18T07:19:09.031Z,14.33
2022-10-18T07:21:41.779Z,15.80
2022-10-18T07:24:14.907Z,13.83
2022-10-18T07:26:50.053Z,15.93
2022-10-18T07:29:23.127Z,16.40
2022-10-18T07:31:55.769Z,15.87
2022-10-18T07:34:31.668Z,13.63
2022-10-18T07:37:04.351Z,15.33
2022-10-18T07:39:37.028Z,16.80
2022-10-18T07:42:12.304Z,11.97
2022-10-18T07:44:46.088Z,12.73
2022-10-18T07:47:19.238Z,12.97
2022-10-18T07:49:51.871Z,12.07
2022-10-18T07:52:24.624Z,14.23
2022-10-18T07:54:57.307Z,16.20
2022-10-18T07:57:32.103Z,16.33
2022-10-18T08:00:05.332Z,12.43
2022-10-18T08:02:38.108Z,15.67
2022-10-18T08:05:10.870Z,14.30
2022-10-18T08:07:43.546Z,18.40
2022-10-18T08:10:19.241Z,12.73
2022-10-18T08:13:01.031Z,20.27
2022-10-18T08:15:33.671Z,16.30
2022-10-18T08:18:06.462Z,17.33
2022-10-18T08:20:43.203Z,16.07
2022-10-18T08:23:17.601Z,16.07
2022-10-18T08:25:50.404Z,17.47
2022-10-18T08:28:26.267Z,13.57
2022-10-18T08:31:06.089Z,15.47
2022-10-18T08:33:39.792Z,15.23
2022-10-18T08:36:14.365Z,14.77
2022-10-18T08:38:47.599Z,16.50
2022-10-18T08:41:27.483Z,14.63
2022-10-18T08:44:07.438Z,14.57
2022-10-18T08:46:42.651Z,12.63
2022-10-18T08:49:20.555Z,14.23
2022-10-18T08:51:53.448Z,13.20
2022-10-18T08:54:32.060Z,12.37
2022-10-18T08:57:08.095Z,13.00
2022-10-18T08:59:44.015Z,17.20
2022-10-18T09:02:18.378Z,12.50
2022-10-18T09:04:55.232Z,10.87
2022-10-18T09:07:44.121Z,13.80
2022-10-18T09:10:21.369Z,13.90
2022-10-18T09:13:06.815Z,14.80
2022-10-18T09:15:44.254Z,11.87
2022-10-18T09:18:28.909Z,11.17
2022-10-18T09:21:07.251Z,11.33
2022-10-18T09:23:44.531Z,12.47
2022-10-18T09:26:18.656Z,13.67
2022-10-18T09:28:58.720Z,11.17
2022-10-18T09:31:38.834Z,16.60
2022-10-18T09:34:13.850Z,13.93
2022-10-18T09:36:47.618Z,13.53
2022-10-18T09:39:23.231Z,11.67
2022-10-18T09:41:57.710Z,13.17
2022-10-18T09:44:32.770Z,15.57
2022-10-18T09:47:14.572Z,12.93
2022-10-18T09:49:52.181Z,11.60
2022-10-18T09:52:27.740Z,10.97
2022-10-18T09:55:02.534Z,13.83
2022-10-18T09:57:37.472Z,13.37
2022-10-18T10:00:16.285Z,12.13
2022-10-18T10:02:50.257Z,13.17
2022-10-18T10:05:22.770Z,10.97
2022-10-18T10:07:58.781Z,10.83
2022-10-18T10:10:32.281Z,12.60
2022-10-18T10:13:06.662Z,12.13
2022-10-18T10:15:42.606Z,14.40
2022-10-18T10:18:21.397Z,15.70
2022-10-18T10:20:55.514Z,12.70
2022-10-18T10:23:30.386Z,13.77
2022-10-18T10:26:07.655Z,13.90
2022-10-18T10:28:44.215Z,14.07
2022-10-18T10:31:26.979Z,13.30
2022-10-18T10:34:02.023Z,15.07
2022-10-18T10:36:35.257Z,14.83
2022-10-18T10:39:08.734Z,14.77
2022-10-18T10:41:41.784Z,15.73
2022-10-18T10:44:16.967Z,15.17
2022-10-18T10:46:51.467Z,13.70
2022-10-18T10:49:39.671Z,16.73
2022-10-18T10:52:27.784Z,13.87
2022-10-18T10:55:34.275Z,14.63
2022-10-18T10:57:56.133Z,15.47
2022-10-18T11:00:39.615Z,12.97
2022-10-18T11:03:28.118Z,17.00
2022-10-18T11:06:03.365Z,11.90
2022-10-18T11:08:37.840Z,13.53
2022-10-18T11:11:19.276Z,14.07
2022-10-18T11:14:21.164Z,12.97
2022-10-18T11:16:57.388Z,13.07
2022-10-18T11:19:34.441Z,17.80
2022-10-18T11:22:12.415Z,16.17
2022-10-18T11:24:45.558Z,14.13
2022-10-18T11:27:21.696Z,19.27
2022-10-18T11:30:05.540Z,15.40
2022-10-18T11:32:44.940Z,17.00
2022-10-18T11:35:28.231Z,14.63
2022-10-18T11:38:07.465Z,16.83
2022-10-18T11:40:46.556Z,15.07
2022-10-18T11:43:24.819Z,16.33
2022-10-18T11:46:05.500Z,16.37
2022-10-18T11:48:59.189Z,19.40
2022-10-18T11:51:50.285Z,24.43
2022-10-18T11:54:35.784Z,16.07
2022-10-18T11:57:14.487Z,17.30
2022-10-18T11:59:53.125Z,13.40
2022-10-18T12:02:37.737Z,14.03
2022-10-18T12:05:23.070Z,14.27
2022-10-18T12:07:59.086Z,13.80
2022-10-18T12:10:52.688Z,14.17
2022-10-18T12:13:35.107Z,14.77
2022-10-18T12:16:08.878Z,14.83
2022-10-18T12:18:48.318Z,14.70
2022-10-18T12:21:25.533Z,14.80
2022-10-18T12:24:00.371Z,14.37
2022-10-18T12:26:34.791Z,13.87
2022-10-18T12:29:16.514Z,13.17
2022-10-18T12:31:50.747Z,13.00
2022-10-18T12:34:34.122Z,16.23
2022-10-18T12:37:17.295Z,14.80
2022-10-18T12:42:48.725Z,11.33
2022-10-18T12:45:25.767Z,11.30
2022-10-18T12:48:00.881Z,11.83
2022-10-18T12:50:35.939Z,12.60
2022-10-18T12:53:19.654Z,13.30
2022-10-18T12:55:53.583Z,12.30
2022-10-18T12:58:35.626Z,14.33
2022-10-18T13:01:08.459Z,11.37
2022-10-18T13:03:52.936Z,11.30
2022-10-18T13:06:26.085Z,12.87
2022-10-18T13:09:17.503Z,12.17
2022-10-18T13:11:50.797Z,12.80
2022-10-18T13:14:53.393Z,12.43
2022-10-18T13:17:41.091Z,13.77
2022-10-18T13:20:26.149Z,15.30
2022-10-18T13:23:06.669Z,14.67
2022-10-18T13:25:50.292Z,12.83
2022-10-18T13:28:32.585Z,12.77
2022-10-18T13:31:13.314Z,13.17
2022-10-18T13:33:47.577Z,14.97
2022-10-18T13:36:25.699Z,15.13
2022-10-18T13:39:03.405Z,13.23
2022-10-18T13:41:55.108Z,12.50
2022-10-18T13:44:33.367Z,12.50
2022-10-18T13:47:14.987Z,13.40
2022-10-18T13:49:59.670Z,11.80
2022-10-18T13:52:40.331Z,12.37
2022-10-18T13:55:23.414Z,12.43
2022-10-18T13:57:59.680Z,11.57
2022-10-18T14:00:37.980Z,12.13
2022-10-18T14:03:37.937Z,11.67
2022-10-18T14:06:17.417Z,14.83
2022-10-18T14:08:53.932Z,11.87
2022-10-18T14:11:35.959Z,13.60
2022-10-18T14:14:13.896Z,14.53
2022-10-18T14:16:49.243Z,13.07
2022-10-18T14:19:28.135Z,14.07
2022-10-18T14:22:07.289Z,13.80
2022-10-18T14:24:41.171Z,12.87
2022-10-18T14:27:16.492Z,13.87
2022-10-18T14:29:52.803Z,12.33
2022-10-18T14:32:27.173Z,16.47
2022-10-18T14:35:31.723Z,14.50
2022-10-18T14:37:58.327Z,15.50
2022-10-18T14:40:38.471Z,11.03
2022-10-18T14:43:12.550Z,17.03
2022-10-18T14:45:45.634Z,12.80
2022-10-18T14:48:19.453Z,16.87
2022-10-18T14:50:59.088Z,13.30
2022-10-18T14:53:35.930Z,16.87
2022-10-18T14:56:09.265Z,14.77
2022-10-18T14:58:42.450Z,16.20
2022-10-18T15:01:17.297Z,15.67
2022-10-18T15:03:52.964Z,17.23
2022-10-18T15:06:25.682Z,15.87
2022-10-18T15:09:02.332Z,15.63
2022-10-18T15:11:36.857Z,16.67
2022-10-18T15:14:14.375Z,13.53
2022-10-18T15:16:47.776Z,14.90
2022-10-18T15:19:31.229Z,12.77
2022-10-18T15:25:12.434Z,16.80
2022-10-18T15:27:46.810Z,16.97
2022-10-18T15:30:21.453Z,17.97
2022-10-18T15:32:55.435Z,16.40
2022-10-18T15:35:29.908Z,16.23
2022-10-18T15:38:14.765Z,16.03
2022-10-18T15:40:48.885Z,13.67
2022-10-18T15:43:34.887Z,17.63
2022-10-18T15:46:07.798Z,16.50
2022-10-18T15:48:41.145Z,13.53
2022-10-18T15:51:20.694Z,16.37
2022-10-18T15:53:54.319Z,12.53
2022-10-18T15:56:29.651Z,15.47
2022-10-18T15:59:09.026Z,13.93
2022-10-18T16:01:43.894Z,14.50
2022-10-18T16:04:19.351Z,17.53
2022-10-18T16:06:52.550Z,16.23
2022-10-18T16:09:29.452Z,17.80
2022-10-18T16:12:05.496Z,14.83
2022-10-18T16:14:39.381Z,16.83
2022-10-18T16:17:17.009Z,18.93
2022-10-18T16:19:50.075Z,16.90
2022-10-18T16:22:23.090Z,20.00
2022-10-18T16:24:55.857Z,19.07
2022-10-18T16:27:30.214Z,19.73
2022-10-18T16:30:06.137Z,21.37
2022-10-18T16:32:43.453Z,19.77
2022-10-18T16:35:16.795Z,20.23
2022-10-18T16:37:50.082Z,23.07
2022-10-18T16:40:24.258Z,27.20
2022-10-18T16:42:58.419Z,19.67
2022-10-18T16:45:31.203Z,22.43
2022-10-18T16:48:03.938Z,23.20
2022-10-18T16:50:37.548Z,23.07
2022-10-18T16:53:12.413Z,24.63
2022-10-18T16:55:45.053Z,23.43
2022-10-18T16:58:19.378Z,23.57
2022-10-18T17:00:52.120Z,21.67
2022-10-18T17:03:27.692Z,21.17
2022-10-18T17:06:00.513Z,23.77
2022-10-18T17:08:34.578Z,20.73
2022-10-18T17:11:07.420Z,20.60
2022-10-18T17:13:41.725Z,25.10
2022-10-18T17:16:21.170Z,21.47
2022-10-18T17:18:53.909Z,22.93
2022-10-18T17:21:27.891Z,23.30
2022-10-18T17:24:04.216Z,38.33
2022-10-18T17:26:37.156Z,22.03
2022-10-18T17:29:11.242Z,26.80
2022-10-18T17:31:46.126Z,25.80
2022-10-18T17:34:21.415Z,23.20
2022-10-18T17:36:54.407Z,23.77
2022-10-18T17:39:27.226Z,20.63
2022-10-18T17:42:00.047Z,24.17
2022-10-18T17:44:36.664Z,27.17
2022-10-18T17:47:09.541Z,22.70
2022-10-18T17:49:44.352Z,23.77
2022-10-18T17:52:17.337Z,22.73
2022-10-18T17:54:50.344Z,26.80
2022-10-18T17:57:23.129Z,22.37
2022-10-18T17:59:58.925Z,23.03
2022-10-18T18:02:32.285Z,24.33
2022-10-18T18:05:06.163Z,25.63
2022-10-18T18:07:38.851Z,29.00
2022-10-18T18:10:11.552Z,24.73
2022-10-18T18:12:45.595Z,26.83
2022-10-18T18:15:19.925Z,27.30
2022-10-18T18:17:56.835Z,27.60
2022-10-18T18:20:30.253Z,21.70
2022-10-18T18:23:02.913Z,26.57
2022-10-18T18:25:35.564Z,26.53
2022-10-18T18:28:08.269Z,31.00
2022-10-18T18:30:42.440Z,22.07
2022-10-18T18:33:15.522Z,23.47
2022-10-18T18:35:55.386Z,24.33
2022-10-18T18:38:28.089Z,22.70
2022-10-18T18:41:04.931Z,23.30
2022-10-18T18:43:39.844Z,31.57
2022-10-18T18:46:15.971Z,22.03
2022-10-18T18:48:48.947Z,19.57
2022-10-18T18:51:22.639Z,18.60
2022-10-18T18:53:55.523Z,22.53
2022-10-18T18:56:29.470Z,20.37
2022-10-18T18:59:02.607Z,20.67
2022-10-18T19:01:38.156Z,17.67
2022-10-18T19:04:11.600Z,12.73
2022-10-18T19:06:46.444Z,18.13
2022-10-18T19:09:22.160Z,19.83
2022-10-18T19:11:56.206Z,16.83
2022-10-18T19:14:29.296Z,15.67
2022-10-18T19:17:07.140Z,13.93
2022-10-18T19:19:40.881Z,19.07
2022-10-18T19:22:13.728Z,16.67
2022-10-18T19:24:46.627Z,16.67
2022-10-18T19:27:19.497Z,16.67
2022-10-18T19:29:52.294Z,16.03
2022-10-18T19:35:08.614Z,15.17
2022-10-18T19:37:42.608Z,15.60
2022-10-18T19:40:17.992Z,14.83
2022-10-18T19:42:50.669Z,18.97
2022-10-18T19:45:23.670Z,15.00
2022-10-18T19:47:57.832Z,14.70
2022-10-18T19:50:30.663Z,14.00
2022-10-18T19:53:03.724Z,18.10
2022-10-18T19:55:36.855Z,16.93
2022-10-18T19:58:09.722Z,15.07
2022-10-18T20:00:42.399Z,17.27
2022-10-18T20:03:17.130Z,15.17
2022-10-18T20:05:55.066Z,16.00
2022-10-18T20:08:28.706Z,17.43
2022-10-18T20:11:01.893Z,16.17
2022-10-18T20:13:34.600Z,15.37
2022-10-18T20:16:08.833Z,12.77
2022-10-18T20:18:44.132Z,12.77
2022-10-18T20:21:20.662Z,16.20
2022-10-18T20:23:53.240Z,14.63
2022-10-18T20:26:26.386Z,14.17
2022-10-18T20:29:02.705Z,18.73
2022-10-18T20:31:38.361Z,15.60
2022-10-18T20:34:12.930Z,18.93
2022-10-18T20:36:45.937Z,17.63
2022-10-18T20:39:18.742Z,16.33
2022-10-18T20:41:51.830Z,15.27
2022-10-18T20:44:26.687Z,20.17
2022-10-18T20:46:59.445Z,17.73
2022-10-18T20:49:33.547Z,13.47
2022-10-18T20:52:06.239Z,12.97
2022-10-18T20:54:39.432Z,17.37
2022-10-18T20:57:12.207Z,14.43
2022-10-18T20:59:46.184Z,14.47
2022-10-18T21:02:19.004Z,13.27
2022-10-18T21:04:53.633Z,12.13
2022-10-18T21:07:26.669Z,11.87
2022-10-18T21:09:59.328Z,10.80
2022-10-18T21:12:32.571Z,10.77
2022-10-18T21:15:08.750Z,14.97
2022-10-18T21:17:43.808Z,11.17
2022-10-18T21:20:19.030Z,15.07
2022-10-18T21:22:52.393Z,9.27
2022-10-18T21:25:25.166Z,12.93
2022-10-18T21:27:58.156Z,11.70
2022-10-18T21:30:33.535Z,11.33
2022-10-18T21:33:07.370Z,9.37
2022-10-18T21:35:41.815Z,10.13
2022-10-18T21:38:14.528Z,11.60
2022-10-18T21:40:47.353Z,8.23
2022-10-18T21:43:20.234Z,11.03
2022-10-18T21:46:00.344Z,9.10
2022-10-18T21:48:33.323Z,12.97
2022-10-18T21:51:08.424Z,11.47
2022-10-18T21:53:43.117Z,6.20
2022-10-18T21:56:16.885Z,9.40
2022-10-18T21:58:49.710Z,7.67
2022-10-18T22:01:23.239Z,8.30
2022-10-18T22:03:57.712Z,9.93
2022-10-18T22:09:12.096Z,11.03
2022-10-18T22:11:46.302Z,8.67
2022-10-18T22:14:18.991Z,11.87
2022-10-18T22:16:51.947Z,10.60
2022-10-18T22:19:24.732Z,10.07
2022-10-18T22:21:58.864Z,5.80
2022-10-18T22:24:31.698Z,7.13
2022-10-18T22:27:07.305Z,13.07
2022-10-18T22:29:40.191Z,18.07
2022-10-18T22:32:12.860Z,8.63
2022-10-18T22:34:45.576Z,10.40
2022-10-18T22:37:19.592Z,7.70
2022-10-18T22:39:52.443Z,13.53
2022-10-18T22:42:27.961Z,6.57
2022-10-18T22:45:00.740Z,8.07
2022-10-18T22:47:33.792Z,4.40
2022-10-18T22:50:07.299Z,6.50
2022-10-18T22:52:41.491Z,5.93
2022-10-18T22:55:14.256Z,6.33
2022-10-18T22:57:55.843Z,6.30
2022-10-18T23:00:28.612Z,7.27
2022-10-18T23:03:01.277Z,11.67
2022-10-18T23:05:37.657Z,8.37
2022-10-18T23:08:13.156Z,7.80
2022-10-18T23:10:45.854Z,8.50
2022-10-18T23:13:18.421Z,6.30
2022-10-18T23:15:51.341Z,7.37
2022-10-18T23:18:26.704Z,8.70
2022-10-18T23:21:03.035Z,12.33
2022-10-18T23:23:37.734Z,5.93
2022-10-18T23:26:11.852Z,7.60
2022-10-18T23:28:48.368Z,8.43
2022-10-18T23:31:25.727Z,9.10
2022-10-18T23:33:59.712Z,8.93
2022-10-18T23:36:33.443Z,7.97
2022-10-18T23:39:09.783Z,8.17
2022-10-18T23:41:42.522Z,10.50
2022-10-18T23:44:15.286Z,5.83
2022-10-18T23:46:48.220Z,7.33
2022-10-18T23:49:20.969Z,9.77
2022-10-18T23:51:53.646Z,5.33
2022-10-18T23:54:29.848Z,9.53
2022-10-18T23:57:02.464Z,9.67
2022-10-18T23:59:38.145Z,8.90
